Time;durP1;ratioP1;P1;durP2;ratioP2;P2;SDS_P1;SDS_P2;PMS_P1;PMS_P2;Temp;Humidity;BMP_temperature;BMP_pressure;BME280_temperature;BME280_humidity;BME280_pressure;Samples;Min_cycle;Max_cycle;Signal;HPM_P1;HPM_P2
2020/12/10 00:01:45;;;;;;;58.20;20.85;;;;;;;-2.24;100.00;98679.52;4264123;82;44116;-82
2020/12/10 00:07:47;;;;;;;48.40;18.57;;;;;;;-2.25;100.00;98669.97;4260387;82;43740;-82
2020/12/10 00:13:50;;;;;;;52.35;20.70;;;;;;;-2.38;100.00;98669.07;4244358;82;43996;-81
2020/12/10 00:19:53;;;;;;;51.35;20.00;;;;;;;-2.26;100.00;98657.78;4262891;82;44082;-81
2020/12/10 00:25:56;;;;;;;52.58;21.37;;;;;;;-2.20;100.00;98652.37;4282976;82;44082;-83
2020/12/10 00:31:58;;;;;;;46.75;18.82;;;;;;;-2.26;100.00;98642.79;4320883;81;43768;-82
2020/12/10 00:38:00;;;;;;;49.15;21.00;;;;;;;-2.08;100.00;98648.47;4346254;81;44424;-82
2020/12/10 00:44:05;;;;;;;49.15;19.40;;;;;;;-2.23;100.00;98649.56;4304229;81;43758;-82
2020/12/10 00:50:08;;;;;;;56.60;20.87;;;;;;;-2.11;100.00;98644.33;4304620;81;28598;-82
2020/12/10 00:56:11;;;;;;;49.85;19.30;;;;;;;-2.27;100.00;98639.83;4227928;82;43764;-82
2020/12/10 01:02:14;;;;;;;56.42;22.10;;;;;;;-2.27;100.00;98653.50;4240898;82;44079;-81
2020/12/10 01:08:16;;;;;;;55.85;20.85;;;;;;;-2.29;100.00;98639.16;4259719;82;44209;-81
2020/12/10 01:14:19;;;;;;;50.48;19.92;;;;;;;-2.19;100.00;98642.17;4204778;81;43734;-83
2020/12/10 01:20:21;;;;;;;55.08;20.70;;;;;;;-2.31;100.00;98635.03;4190985;82;44136;-83
2020/12/10 01:26:25;;;;;;;63.23;23.47;;;;;;;-2.39;100.00;98614.28;4304477;81;43272;-83
2020/12/10 01:32:27;;;;;;;59.53;22.90;;;;;;;-2.49;100.00;98611.42;4403101;79;44119;-82
2020/12/10 01:38:29;;;;;;;57.83;23.30;;;;;;;-2.43;100.00;98596.33;4359525;79;44105;-82
2020/12/10 01:44:31;;;;;;;56.75;22.60;;;;;;;-2.33;100.00;98600.14;4381329;79;44078;-82
2020/12/10 01:50:33;;;;;;;53.85;21.23;;;;;;;-2.26;100.00;98599.34;4334530;79;44148;-81
2020/12/10 01:56:35;;;;;;;67.35;23.38;;;;;;;-2.26;100.00;98601.97;4355454;79;43748;-82
2020/12/10 02:02:38;;;;;;;61.28;23.15;;;;;;;-2.27;100.00;98577.94;4376038;79;44424;-82
2020/12/10 02:08:43;;;;;;;61.28;21.80;;;;;;;-2.31;100.00;98566.56;4378507;79;44448;-81
2020/12/10 02:14:45;;;;;;;49.42;19.05;;;;;;;-2.46;100.00;98561.91;4398640;79;28608;-81
2020/12/10 02:20:47;;;;;;;53.15;20.40;;;;;;;-2.47;100.00;98562.06;4404677;79;44068;-81
2020/12/10 02:26:51;;;;;;;49.40;17.98;;;;;;;-2.33;100.00;98560.64;4416637;79;43779;-81
2020/12/10 02:32:58;;;;;;;41.55;16.82;;;;;;;-2.06;100.00;98555.60;4409366;79;44480;-80
2020/12/10 02:39:01;;;;;;;41.65;16.42;;;;;;;-1.93;100.00;98556.94;4415398;79;44504;-82
2020/12/10 02:45:04;;;;;;;40.78;15.65;;;;;;;-1.93;100.00;98552.51;4412135;79;44425;-81
2020/12/10 02:51:06;;;;;;;51.45;19.80;;;;;;;-2.11;100.00;98544.23;4363676;79;43995;-81
2020/12/10 02:57:08;;;;;;;51.30;19.35;;;;;;;-2.30;100.00;98547.98;4392797;79;43669;-81
2020/12/10 03:03:10;;;;;;;49.05;19.20;;;;;;;-2.18;100.00;98534.03;4415848;79;43767;-81
2020/12/10 03:09:13;;;;;;;54.50;20.23;;;;;;;-2.11;100.00;98528.94;4323050;81;44151;-78
2020/12/10 03:15:15;;;;;;;50.67;17.80;;;;;;;-2.17;100.00;98525.62;4324941;80;43785;-78
2020/12/10 03:21:17;;;;;;;51.58;18.35;;;;;;;-2.06;100.00;98516.59;4279704;81;43495;-79
2020/12/10 03:27:19;;;;;;;56.92;21.60;;;;;;;-1.91;100.00;98504.92;4315310;81;44100;-80
2020/12/10 03:33:21;;;;;;;47.38;18.65;;;;;;;-2.11;100.00;98501.28;4320767;80;43872;-81
2020/12/10 03:39:27;;;;;;;45.85;14.63;;;;;;;-2.17;100.00;98495.33;4255020;82;43677;-81
2020/12/10 03:45:29;;;;;;;52.53;17.90;;;;;;;-2.16;100.00;98487.75;4264693;81;28564;-80
2020/12/10 03:51:31;;;;;;;53.35;19.70;;;;;;;-1.93;100.00;98486.63;4235392;82;44079;-82
2020/12/10 03:57:33;;;;;;;49.60;17.30;;;;;;;-2.13;100.00;98476.41;4215962;82;43746;-81
2020/12/10 04:03:35;;;;;;;49.58;17.82;;;;;;;-2.05;100.00;98467.67;4262838;82;43765;-82
2020/12/10 04:09:38;;;;;;;44.93;15.78;;;;;;;-2.22;100.00;98467.35;4242429;82;43650;-82
2020/12/10 04:15:40;;;;;;;51.73;18.82;;;;;;;-2.10;100.00;98461.58;4248434;82;44080;-83
2020/12/10 04:21:42;;;;;;;53.38;19.23;;;;;;;-2.17;100.00;98469.83;4391177;79;44125;-82
2020/12/10 04:27:44;;;;;;;58.83;20.97;;;;;;;-2.08;100.00;98468.02;4424978;79;44265;-82
2020/12/10 04:33:46;;;;;;;57.30;19.90;;;;;;;-2.16;100.00;98460.09;4400524;79;44104;-80
2020/12/10 04:39:50;;;;;;;52.30;18.55;;;;;;;-2.19;100.00;98453.34;4387046;79;43471;-80
2020/12/10 04:45:58;;;;;;;52.15;20.15;;;;;;;-2.31;100.00;98446.27;4416648;79;43777;-80
2020/12/10 04:52:01;;;;;;;56.63;20.82;;;;;;;-2.34;100.00;98440.50;4373762;79;44097;-79
2020/12/10 04:58:05;;;;;;;43.48;16.55;;;;;;;-2.35;100.00;98443.61;4423410;78;43669;-81
2020/12/10 05:04:07;;;;;;;44.20;17.07;;;;;;;-2.29;100.00;98438.19;4390753;79;43646;-80
2020/12/10 05:10:09;;;;;;;46.77;18.85;;;;;;;-2.33;100.00;98444.30;4324120;81;43745;-80
2020/12/10 05:16:22;;;;;;;46.23;17.95;;;;;;;-2.35;100.00;98440.98;4311186;81;43730;-79
2020/12/10 05:22:24;;;;;;;50.08;18.52;;;;;;;-2.26;100.00;98437.87;4324929;80;43757;-80
2020/12/10 05:28:27;;;;;;;44.63;16.60;;;;;;;-2.35;100.00;98431.76;4266367;81;43341;-79
2020/12/10 05:34:29;;;;;;;45.15;16.62;;;;;;;-2.28;100.00;98420.91;4250792;82;43231;-79
2020/12/10 05:40:32;;;;;;;38.15;14.90;;;;;;;-2.24;100.00;98421.41;4313491;81;44510;-80
2020/12/10 05:46:36;;;;;;;32.83;12.45;;;;;;;-2.20;100.00;98421.41;4326636;80;43770;-80
2020/12/10 05:52:49;;;;;;;33.90;14.23;;;;;;;-2.15;100.00;98420.44;4296947;81;44081;-80
2020/12/10 05:59:00;;;;;;;32.83;13.53;;;;;;;-2.19;100.00;98422.24;4393715;79;86411;-80
2020/12/10 06:05:03;;;;;;;37.83;15.70;;;;;;;-2.10;100.00;98414.16;4316429;81;44498;-79
2020/12/10 06:11:05;;;;;;;32.53;13.60;;;;;;;-2.13;100.00;98413.19;4317922;81;44079;-80
2020/12/10 06:17:09;;;;;;;38.40;15.15;;;;;;;-2.11;100.00;98411.20;4333521;81;44439;-80
2020/12/10 06:23:31;;;;;;;38.53;14.90;;;;;;;-2.13;100.00;98409.23;4314347;81;44468;-80
2020/12/10 06:29:34;;;;;;;40.45;15.98;;;;;;;-1.97;100.00;98418.94;4322135;80;44490;-80
2020/12/10 06:35:37;;;;;;;40.30;15.95;;;;;;;-2.20;100.00;98414.02;4308021;81;44462;-79
2020/12/10 06:41:59;;;;;;;37.65;16.10;;;;;;;-2.08;100.00;98400.00;4320049;80;44507;-78
2020/12/10 06:48:06;;;;;;;32.90;13.90;;;;;;;-2.12;100.00;98398.22;4327789;80;44100;-77
2020/12/10 06:54:09;;;;;;;36.20;13.90;;;;;;;-2.14;100.00;98386.52;4298989;80;44468;-79
2020/12/10 07:00:35;;;;;;;31.73;13.70;;;;;;;-2.17;100.00;98396.08;4318481;81;44097;-80
2020/12/10 07:06:39;;;;;;;29.48;11.78;;;;;;;-2.20;100.00;98382.41;4337919;81;43463;-79
2020/12/10 07:12:44;;;;;;;28.45;12.82;;;;;;;-2.20;100.00;98365.29;4320121;80;43449;-81
2020/12/10 07:18:48;;;;;;;30.12;13.15;;;;;;;-2.10;100.00;98368.58;4301045;82;28548;-82
2020/12/10 07:24:50;;;;;;;30.82;12.60;;;;;;;-1.96;100.00;98357.35;4322412;82;43411;-80
2020/12/10 07:30:54;;;;;;;28.98;12.25;;;;;;;-1.98;100.00;98351.91;4312811;80;43431;-82
2020/12/10 07:36:59;;;;;;;30.45;11.90;;;;;;;-1.96;100.00;98346.81;4325112;80;43399;-83
2020/12/10 07:43:06;;;;;;;28.80;11.67;;;;;;;-1.88;100.00;98338.06;4291619;82;28572;-82
2020/12/10 07:49:10;;;;;;;30.35;12.85;;;;;;;-1.79;100.00;98338.05;4300563;82;43382;-84
2020/12/10 07:55:28;;;;;;;30.70;11.83;;;;;;;-1.53;100.00;98338.32;4401516;79;80371;-83
2020/12/10 08:01:56;;;;;;;28.52;11.63;;;;;;;-1.73;100.00;98329.48;4317752;81;43388;-82
2020/12/10 08:07:59;;;;;;;29.32;11.53;;;;;;;-1.63;100.00;98326.16;4323732;81;43501;-83
2020/12/10 08:14:08;;;;;;;28.15;11.48;;;;;;;-1.72;100.00;98330.64;4314148;80;43437;-82
2020/12/10 08:20:10;;;;;;;24.55;9.38;;;;;;;-1.72;100.00;98331.96;4323899;81;43959;-80
2020/12/10 08:26:15;;;;;;;29.30;11.15;;;;;;;-1.63;100.00;98331.91;4279416;81;43383;-80
2020/12/10 08:32:17;;;;;;;29.67;10.82;;;;;;;-1.69;100.00;98315.80;4329900;80;43388;-80
2020/12/10 08:38:31;;;;;;;24.43;10.05;;;;;;;-1.58;100.00;98315.10;4557396;76;86013;-79
2020/12/10 08:44:54;;;;;;;24.30;9.98;;;;;;;-1.71;100.00;98315.15;4436813;79;43962;-79
2020/12/10 08:51:00;;;;;;;28.95;11.05;;;;;;;-1.60;100.00;98310.50;4429741;79;28576;-79
2020/12/10 08:57:07;;;;;;;28.62;10.35;;;;;;;-1.46;100.00;98293.12;4429022;79;43507;-79
2020/12/10 09:03:06;;;;;;;26.55;9.70;;;;;;;-1.50;100.00;98299.26;4432854;79;42699;-79
2020/12/10 09:09:08;;;;;;;26.42;10.08;;;;;;;-1.49;100.00;98302.22;4438657;79;42951;-80
2020/12/10 09:15:12;;;;;;;22.55;9.88;;;;;;;-1.46;100.00;98297.91;4451423;79;44830;-81
2020/12/10 09:21:15;;;;;;;23.10;9.37;;;;;;;-1.33;100.00;98283.34;4444367;79;28622;-84
2020/12/10 09:27:21;;;;;;;22.35;10.03;;;;;;;-0.99;100.00;98279.02;4436245;79;44468;-80
2020/12/10 09:33:21;;;;;;;24.45;9.55;;;;;;;-0.92;100.00;98263.82;4439656;79;43921;-81
2020/12/10 09:39:23;;;;;;;25.62;9.75;;;;;;;-0.76;100.00;98268.16;4410779;79;42344;-80
2020/12/10 09:45:26;;;;;;;21.68;8.63;;;;;;;-0.66;100.00;98261.30;4431243;79;43941;-83
2020/12/10 09:51:39;;;;;;;21.37;10.10;;;;;;;-0.66;100.00;98244.97;4431664;79;28574;-82
2020/12/10 09:57:36;;;;;;;22.00;10.30;;;;;;;-0.66;100.00;98236.22;4446333;79;37326;-82
2020/12/10 10:03:38;;;;;;;21.27;9.43;;;;;;;-0.65;100.00;98236.05;4436139;79;43934;-79
2020/12/10 10:09:43;;;;;;;22.45;9.20;;;;;;;-0.77;100.00;98221.64;4437366;79;43919;-81
2020/12/10 10:15:45;;;;;;;22.90;10.70;;;;;;;-0.75;100.00;98230.20;4432900;79;44514;-88
2020/12/10 10:21:49;;;;;;;21.40;9.70;;;;;;;-0.92;100.00;98222.91;4423102;79;43905;-84
2020/12/10 10:27:53;;;;;;;22.45;9.73;;;;;;;-0.75;100.00;98218.31;4415949;79;44199;-83
2020/12/10 10:33:55;;;;;;;23.73;10.23;;;;;;;-0.96;100.00;98201.33;4429423;79;44473;-81
2020/12/10 10:39:58;;;;;;;24.32;9.65;;;;;;;-0.87;100.00;98195.48;4433502;80;43911;-81
2020/12/10 10:46:00;;;;;;;24.25;10.15;;;;;;;-0.79;100.00;98179.58;4453512;79;44559;-87
2020/12/10 10:52:03;;;;;;;24.47;9.25;;;;;;;-0.96;100.00;98178.91;4418465;80;43917;-85
2020/12/10 10:58:05;;;;;;;24.60;10.15;;;;;;;-0.85;100.00;98174.52;4436760;79;44450;-85
2020/12/10 11:04:07;;;;;;;23.18;10.88;;;;;;;-0.78;100.00;98152.66;4417047;80;43701;-83
2020/12/10 11:10:11;;;;;;;25.55;10.18;;;;;;;-0.91;100.00;98154.09;4445800;79;42897;-85
2020/12/10 11:16:14;;;;;;;20.97;9.48;;;;;;;-0.88;100.00;98147.16;4434335;80;43938;-85
2020/12/10 11:22:17;;;;;;;21.40;10.03;;;;;;;-0.81;100.00;98143.79;4404900;79;44456;-84
2020/12/10 11:28:21;;;;;;;20.70;9.43;;;;;;;-0.84;100.00;98142.33;4435544;79;43906;-88
2020/12/10 11:34:29;;;;;;;21.95;9.83;;;;;;;-0.74;100.00;98146.04;4463545;79;43923;-83
2020/12/10 11:40:31;;;;;;;22.00;10.03;;;;;;;-0.61;100.00;98142.27;4424550;79;44475;-85
2020/12/10 11:46:33;;;;;;;24.63;11.00;;;;;;;-0.69;100.00;98130.98;4410604;80;43229;-90
2020/12/10 11:52:36;;;;;;;21.68;9.70;;;;;;;-0.75;100.00;98134.65;4429377;80;43946;-83
2020/12/10 11:58:38;;;;;;;21.48;10.45;;;;;;;-0.65;100.00;98129.12;4450900;80;44483;-82
2020/12/10 12:04:42;;;;;;;23.55;9.80;;;;;;;-0.74;100.00;98131.52;4374528;80;43938;-81
2020/12/10 12:10:44;;;;;;;22.07;9.60;;;;;;;-0.55;100.00;98120.92;4423941;80;43929;-84
2020/12/10 12:16:47;;;;;;;19.27;9.58;;;;;;;-0.50;100.00;98122.53;4418917;80;43933;-82
2020/12/10 12:22:53;;;;;;;27.17;12.40;;;;;;;-0.61;100.00;98119.83;4412345;79;43465;-81
2020/12/10 12:28:55;;;;;;;25.62;11.25;;;;;;;-0.57;100.00;98114.52;4441715;79;42935;-81
2020/12/10 12:34:57;;;;;;;26.17;10.85;;;;;;;-0.56;100.00;98102.13;4406780;80;42894;-82
2020/12/10 12:41:00;;;;;;;26.68;11.53;;;;;;;-0.57;100.00;98103.13;4422227;80;43129;-85
2020/12/10 12:47:04;;;;;;;29.37;12.10;;;;;;;-0.58;100.00;98105.45;4422741;80;43494;-84
2020/12/10 12:53:07;;;;;;;25.37;10.07;;;;;;;-0.57;100.00;98105.28;4424007;80;28560;-92
2020/12/10 12:59:10;;;;;;;22.93;10.25;;;;;;;-0.56;100.00;98111.36;4436181;80;44417;-84
2020/12/10 13:05:12;;;;;;;21.42;10.30;;;;;;;-0.52;100.00;98104.73;4414368;80;44519;-81
2020/12/10 13:11:19;;;;;;;21.50;9.50;;;;;;;-0.39;100.00;98103.27;4419819;79;43975;-83
2020/12/10 13:17:22;;;;;;;25.68;11.33;;;;;;;-0.38;100.00;98107.02;4442803;79;42904;-84
2020/12/10 13:23:24;;;;;;;26.73;11.38;;;;;;;-0.39;100.00;98098.78;4429246;80;43235;-84
2020/12/10 13:29:27;;;;;;;22.82;10.70;;;;;;;-0.41;100.00;98107.40;4434991;80;44478;-84
2020/12/10 13:35:29;;;;;;;28.90;12.30;;;;;;;-0.36;100.00;98111.64;4432689;79;43435;-83
2020/12/10 13:41:31;;;;;;;24.67;10.15;;;;;;;-0.37;100.00;98107.34;4417326;79;42862;-86
2020/12/10 13:47:35;;;;;;;24.95;10.45;;;;;;;-0.31;100.00;98104.49;4391985;79;42904;-85
2020/12/10 13:53:37;;;;;;;27.20;11.50;;;;;;;-0.31;100.00;98101.33;4435000;79;43355;-85
2020/12/10 13:59:39;;;;;;;27.58;11.78;;;;;;;-0.33;100.00;98103.34;4435479;79;43421;-87
2020/12/10 14:05:41;;;;;;;26.95;11.43;;;;;;;-0.36;100.00;98102.41;4425463;79;42884;-86
2020/12/10 14:11:44;;;;;;;26.35;12.37;;;;;;;-0.27;100.00;98107.56;4427154;79;42887;-85
2020/12/10 14:17:46;;;;;;;28.12;12.75;;;;;;;-0.23;100.00;98107.01;4438003;79;43403;-88
2020/12/10 14:23:50;;;;;;;26.82;11.10;;;;;;;-0.33;100.00;98102.03;4440366;79;43043;-86
2020/12/10 14:29:52;;;;;;;26.60;11.22;;;;;;;-0.31;100.00;98105.81;4454401;79;42890;-86
2020/12/10 14:35:54;;;;;;;26.05;11.57;;;;;;;-0.23;100.00;98099.60;4438084;79;42865;-88
2020/12/10 14:41:57;;;;;;;26.55;11.40;;;;;;;-0.26;100.00;98101.27;4436432;79;43151;-84
2020/12/10 14:47:59;;;;;;;32.95;14.40;;;;;;;-0.24;100.00;98101.41;4398142;79;44077;-83
2020/12/10 14:54:01;;;;;;;27.13;12.28;;;;;;;-0.11;100.00;98108.69;4422580;79;28620;-87
2020/12/10 15:00:04;;;;;;;28.23;11.08;;;;;;;-0.04;100.00;98105.63;4423672;79;43421;-85
2020/12/10 15:06:10;;;;;;;31.30;12.28;;;;;;;-0.05;100.00;98115.89;4443134;78;43382;-86
2020/12/10 15:12:12;;;;;;;29.87;12.90;;;;;;;-0.05;100.00;98130.42;4414480;79;28552;-86
2020/12/10 15:18:14;;;;;;;29.65;11.90;;;;;;;-0.07;100.00;98135.05;4440190;79;43420;-85
2020/12/10 15:24:16;;;;;;;31.62;12.53;;;;;;;0.05;100.00;98131.93;4427858;79;43441;-85
2020/12/10 15:30:18;;;;;;;30.10;12.95;;;;;;;0.03;100.00;98129.98;4419289;79;43393;-86
2020/12/10 15:36:22;;;;;;;32.88;13.28;;;;;;;0.10;100.00;98131.69;4431605;79;44144;-85
2020/12/10 15:42:24;;;;;;;33.13;13.53;;;;;;;0.12;100.00;98138.12;4430299;79;44115;-84
2020/12/10 15:48:26;;;;;;;33.40;14.03;;;;;;;0.10;100.00;98145.42;4432101;80;44098;-84
2020/12/10 15:54:29;;;;;;;35.40;14.40;;;;;;;0.11;100.00;98151.03;4438651;80;44280;-85
2020/12/10 16:00:31;;;;;;;29.95;12.85;;;;;;;0.20;100.00;98155.69;4423223;79;43381;-86
2020/12/10 16:06:33;;;;;;;33.15;13.28;;;;;;;0.17;100.00;98144.17;4427320;80;28615;-85
2020/12/10 16:12:35;;;;;;;35.98;13.95;;;;;;;0.18;100.00;98139.20;4435184;80;44108;-84
2020/12/10 16:18:37;;;;;;;38.35;15.43;;;;;;;0.18;100.00;98136.07;4441077;80;44481;-86
2020/12/10 16:24:39;;;;;;;34.92;14.23;;;;;;;0.16;100.00;98147.34;4326425;81;44302;-82
2020/12/10 16:30:41;;;;;;;34.10;14.55;;;;;;;0.10;100.00;98156.80;4243629;83;44184;-87
2020/12/10 16:36:45;;;;;;;34.53;14.20;;;;;;;0.38;100.00;98176.46;4243123;83;44243;-83
2020/12/10 16:42:47;;;;;;;43.23;15.93;;;;;;;0.30;100.00;98191.91;4239065;82;44445;-85
2020/12/10 16:48:52;;;;;;;38.10;14.98;;;;;;;0.24;100.00;98204.57;4256913;83;44458;-85
2020/12/10 16:54:54;;;;;;;39.15;16.10;;;;;;;0.46;100.00;98198.00;4222248;83;44467;-87
2020/12/10 17:00:58;;;;;;;37.48;14.18;;;;;;;0.46;100.00;98186.10;4243128;81;44464;-85
2020/12/10 17:07:04;;;;;;;38.73;14.60;;;;;;;0.18;100.00;98169.12;4260600;83;44477;-86
2020/12/10 17:13:12;;;;;;;39.75;14.50;;;;;;;0.11;100.00;98173.01;4169767;84;28577;-85
2020/12/10 17:19:15;;;;;;;38.63;14.47;;;;;;;0.17;100.00;98169.29;4236977;83;44453;-85
2020/12/10 17:25:18;;;;;;;38.25;14.98;;;;;;;0.33;100.00;98188.92;4241002;83;44462;-83
2020/12/10 17:31:23;;;;;;;43.02;15.88;;;;;;;0.35;100.00;98188.71;4236045;83;44473;-84
2020/12/10 17:37:25;;;;;;;40.92;14.95;;;;;;;0.29;100.00;98194.24;4269008;81;44459;-86
2020/12/10 17:43:28;;;;;;;39.13;14.50;;;;;;;0.20;100.00;98182.97;4328147;81;44469;-87
2020/12/10 17:49:33;;;;;;;40.60;16.55;;;;;;;0.32;100.00;98174.06;4265751;81;28565;-88
2020/12/10 17:55:35;;;;;;;38.20;15.45;;;;;;;0.17;100.00;98175.90;4315745;81;44432;-83
2020/12/10 18:01:48;;;;;;;40.40;15.18;;;;;;;0.17;100.00;98182.02;4287297;81;28558;-84
2020/12/10 18:07:51;;;;;;;41.42;15.80;;;;;;;0.28;100.00;98192.61;4300757;81;44425;-86
2020/12/10 18:13:54;;;;;;;40.75;14.95;;;;;;;0.33;100.00;98194.20;4288830;82;44428;-85
2020/12/10 18:19:58;;;;;;;35.30;15.58;;;;;;;0.54;100.00;98196.58;4294283;81;28618;-86
2020/12/10 18:32:13;;;;;;;37.67;15.98;;;;;;;0.78;100.00;98187.95;4599343;76;86410;-82
2020/12/10 18:38:17;;;;;;;41.18;15.80;;;;;;;0.64;100.00;98190.48;4504249;78;44428;-82
2020/12/10 18:44:21;;;;;;;38.48;15.25;;;;;;;0.58;100.00;98199.15;4521253;78;44448;-83
2020/12/10 18:50:24;;;;;;;36.40;14.65;;;;;;;0.55;100.00;98212.76;4517720;78;28559;-84
2020/12/10 18:56:26;;;;;;;40.20;16.23;;;;;;;0.74;100.00;98225.08;4510692;79;44797;-84
2020/12/10 19:02:36;;;;;;;43.83;16.05;;;;;;;0.71;100.00;98238.66;4528972;78;28595;-82
2020/12/10 19:08:35;;;;;;;40.90;16.20;;;;;;;0.68;100.00;98245.16;4536845;78;44468;-84
2020/12/10 19:14:37;;;;;;;39.90;16.85;;;;;;;0.74;100.00;98251.02;4514016;78;44448;-81
2020/12/10 19:20:40;;;;;;;37.33;15.72;;;;;;;0.60;100.00;98264.59;4459538;78;44430;-85
2020/12/10 19:26:44;;;;;;;45.38;17.70;;;;;;;0.47;100.00;98267.92;4502848;78;28569;-86
2020/12/10 19:32:48;;;;;;;45.98;17.82;;;;;;;0.50;100.00;98270.19;4510739;78;43723;-87
2020/12/10 19:38:50;;;;;;;50.48;20.00;;;;;;;0.40;100.00;98270.45;4495521;78;44426;-88
2020/12/10 19:44:53;;;;;;;50.20;20.60;;;;;;;0.47;100.00;98272.38;4489851;78;44261;-85
2020/12/10 19:50:55;;;;;;;55.80;19.98;;;;;;;0.50;100.00;98289.19;4492736;78;44129;-86
2020/12/10 19:56:58;;;;;;;55.48;21.48;;;;;;;0.31;100.00;98274.72;4497252;78;44117;-87
2020/12/10 20:03:00;;;;;;;58.90;22.65;;;;;;;0.46;100.00;98268.89;4491281;79;44270;-86
2020/12/10 20:09:05;;;;;;;59.08;21.65;;;;;;;0.51;100.00;98272.31;4481138;78;44106;-84
2020/12/10 20:15:08;;;;;;;64.70;22.42;;;;;;;0.54;100.00;98278.05;4490341;78;28607;-82
2020/12/10 20:21:11;;;;;;;58.35;21.93;;;;;;;0.32;100.00;98275.87;4504573;78;44203;-85
2020/12/10 20:27:13;;;;;;;62.03;22.93;;;;;;;0.20;100.00;98271.53;4478111;77;43640;-85
2020/12/10 20:33:16;;;;;;;66.72;24.57;;;;;;;0.34;100.00;98269.05;4503313;79;43774;-86
2020/12/10 20:39:20;;;;;;;71.77;25.88;;;;;;;0.41;100.00;98272.09;4534838;78;43572;-86
2020/12/10 20:45:22;;;;;;;65.30;25.27;;;;;;;0.38;100.00;98276.44;4499662;78;43344;-84
2020/12/10 20:51:25;;;;;;;72.60;26.02;;;;;;;0.48;100.00;98274.84;4492657;78;28523;-83
2020/12/10 20:57:27;;;;;;;82.53;27.30;;;;;;;0.52;100.00;98276.59;4493854;78;42965;-80
2020/12/10 21:03:32;;;;;;;76.90;26.93;;;;;;;0.29;100.00;98288.63;4491828;78;43598;-83
2020/12/10 21:09:35;;;;;;;73.92;25.85;;;;;;;0.37;100.00;98293.31;4490499;78;28620;-84
2020/12/10 21:15:37;;;;;;;74.40;27.60;;;;;;;0.49;100.00;98292.36;4491606;78;28608;-85
2020/12/10 21:21:39;;;;;;;75.40;28.20;;;;;;;0.25;100.00;98298.23;4485590;78;28624;-83
2020/12/10 21:27:42;;;;;;;77.20;27.98;;;;;;;0.23;100.00;98293.63;4482548;78;43379;-82
2020/12/10 21:33:46;;;;;;;83.45;27.55;;;;;;;0.35;100.00;98300.61;4486000;78;28655;-81
2020/12/10 21:39:51;;;;;;;81.37;28.38;;;;;;;0.32;100.00;98310.24;4476941;78;42985;-82
2020/12/10 21:45:53;;;;;;;75.05;28.50;;;;;;;0.14;100.00;98313.22;4501096;78;28547;-83
2020/12/10 21:51:58;;;;;;;76.77;27.40;;;;;;;0.29;100.00;98330.94;4481747;78;43692;-83
2020/12/10 21:58:00;;;;;;;76.05;27.50;;;;;;;0.29;100.00;98333.58;4469460;78;43702;-81
2020/12/10 22:04:02;;;;;;;72.32;27.35;;;;;;;0.23;100.00;98331.16;4493796;78;44175;-82
2020/12/10 22:10:04;;;;;;;74.62;28.23;;;;;;;0.49;100.00;98324.09;4474699;78;44101;-82
2020/12/10 22:16:09;;;;;;;71.40;27.87;;;;;;;0.59;100.00;98334.90;4491237;77;44077;-81
2020/12/10 22:22:11;;;;;;;74.97;28.32;;;;;;;0.40;100.00;98331.80;4485016;78;44126;-81
2020/12/10 22:28:13;;;;;;;74.55;30.77;;;;;;;0.34;100.00;98329.39;4486863;77;44076;-82
2020/12/10 22:34:16;;;;;;;75.90;29.10;;;;;;;0.32;100.00;98345.11;4487713;78;44160;-81
2020/12/10 22:40:18;;;;;;;72.27;27.40;;;;;;;0.22;100.00;98334.81;4312433;81;44104;-85
2020/12/10 22:46:22;;;;;;;61.83;25.80;;;;;;;0.10;100.00;98340.52;4349940;80;42989;-84
2020/12/10 22:52:25;;;;;;;74.17;28.83;;;;;;;0.17;100.00;98341.13;4317924;80;44120;-83
2020/12/10 22:58:27;;;;;;;76.33;29.50;;;;;;;0.20;100.00;98342.91;4363570;80;43404;-82
2020/12/10 23:04:34;;;;;;;74.50;29.42;;;;;;;0.17;100.00;98343.28;4365418;80;44108;-83
2020/12/10 23:10:33;;;;;;;70.03;27.70;;;;;;;0.16;100.00;98345.61;4358603;80;28578;-83
2020/12/10 23:16:35;;;;;;;69.25;29.25;;;;;;;0.22;100.00;98342.75;4362996;80;28647;-84
2020/12/10 23:22:37;;;;;;;70.80;27.30;;;;;;;0.07;100.00;98341.41;4362252;80;44119;-84
2020/12/10 23:28:39;;;;;;;77.00;29.30;;;;;;;-0.09;100.00;98341.86;4367010;80;43246;-83
2020/12/10 23:34:43;;;;;;;69.92;28.10;;;;;;;-0.24;100.00;98356.88;4350487;80;44104;-82
2020/12/10 23:40:45;;;;;;;66.02;28.47;;;;;;;-0.16;100.00;98354.14;4350320;80;43733;-83
2020/12/10 23:46:48;;;;;;;71.92;29.85;;;;;;;-0.11;100.00;98356.25;4360981;81;44128;-83
2020/12/10 23:52:50;;;;;;;70.55;29.18;;;;;;;0.17;100.00;98353.86;4360419;80;44102;-83
2020/12/10 23:58:52;;;;;;;69.22;28.05;;;;;;;-0.12;100.00;98347.52;4356948;81;44096;-83
